createdAt,value
2022-08-08T00:00:53.448Z,17.98
2022-08-08T00:00:55.398Z,18.00
2022-08-08T00:02:03.715Z,17.96
2022-08-08T00:02:38.075Z,17.95
2022-08-08T00:03:37.294Z,17.94
2022-08-08T00:04:36.408Z,17.92
2022-08-08T00:05:44.006Z,17.91
2022-08-08T00:06:37.201Z,17.90
2022-08-08T00:07:36.184Z,17.87
2022-08-08T00:08:36.310Z,17.87
2022-08-08T00:09:36.210Z,17.85
2022-08-08T00:10:37.104Z,17.83
2022-08-08T00:11:46.823Z,17.81
2022-08-08T00:12:37.152Z,17.80
2022-08-08T00:14:17.004Z,17.78
2022-08-08T00:14:48.300Z,17.77
2022-08-08T00:15:56.488Z,17.76
2022-08-08T00:16:37.104Z,17.73
2022-08-08T00:17:58.753Z,17.72
2022-08-08T00:18:37.086Z,17.70
2022-08-08T00:19:36.277Z,17.68
2022-08-08T00:20:37.201Z,17.67
2022-08-08T00:21:39.637Z,17.65
2022-08-08T00:22:39.823Z,17.65
2022-08-08T00:23:43.176Z,17.63
2022-08-08T00:24:37.008Z,17.61
2022-08-08T00:25:39.192Z,17.61
2022-08-08T00:26:37.096Z,17.59
2022-08-08T00:27:36.848Z,17.58
2022-08-08T00:28:37.112Z,17.57
2022-08-08T00:29:45.004Z,17.57
2022-08-08T00:30:37.015Z,17.55
2022-08-08T00:32:20.479Z,17.55
2022-08-08T00:32:37.004Z,17.54
2022-08-08T00:34:18.659Z,17.53
2022-08-08T00:34:36.930Z,17.52
2022-08-08T00:35:37.362Z,17.51
2022-08-08T00:36:35.873Z,17.51
2022-08-08T00:37:47.535Z,17.50
2022-08-08T00:38:51.673Z,17.49
2022-08-08T00:41:07.728Z,17.48
2022-08-08T00:41:10.962Z,17.48
2022-08-08T00:41:54.902Z,17.47
2022-08-08T00:42:37.144Z,17.45
2022-08-08T00:43:41.009Z,17.43
2022-08-08T00:44:35.878Z,17.43
2022-08-08T00:45:35.792Z,17.42
2022-08-08T00:46:56.444Z,17.41
2022-08-08T00:48:01.388Z,17.40
2022-08-08T00:48:36.800Z,17.38
2022-08-08T00:49:36.673Z,17.36
2022-08-08T00:50:35.776Z,17.35
2022-08-08T00:51:39.085Z,17.33
2022-08-08T00:52:40.301Z,17.32
2022-08-08T00:53:43.508Z,17.30
2022-08-08T00:54:36.715Z,17.29
2022-08-08T00:55:53.460Z,17.28
2022-08-08T00:56:37.613Z,17.26
2022-08-08T00:57:36.234Z,17.25
2022-08-08T00:58:38.084Z,17.24
2022-08-08T00:59:44.333Z,17.23
2022-08-08T01:00:38.037Z,17.22
2022-08-08T01:01:37.930Z,17.21
2022-08-08T01:03:58.026Z,17.20
2022-08-08T01:04:00.940Z,17.19
2022-08-08T01:04:36.624Z,17.18
2022-08-08T01:05:56.209Z,17.17
2022-08-08T01:06:36.555Z,17.15
2022-08-08T01:07:54.723Z,17.14
2022-08-08T01:08:37.542Z,17.13
2022-08-08T01:09:41.509Z,17.13
2022-08-08T01:10:36.860Z,17.12
2022-08-08T01:11:36.346Z,17.10
2022-08-08T01:12:35.639Z,17.09
2022-08-08T01:13:43.393Z,17.07
2022-08-08T01:14:53.425Z,17.06
2022-08-08T01:15:43.639Z,17.05
2022-08-08T01:16:37.294Z,17.04
2022-08-08T01:17:54.213Z,17.03
2022-08-08T01:18:53.298Z,17.04
2022-08-08T01:19:52.241Z,17.04
2022-08-08T01:20:36.412Z,17.03
2022-08-08T01:22:11.764Z,17.03
2022-08-08T01:22:36.878Z,17.02
2022-08-08T01:24:05.528Z,17.02
2022-08-08T01:24:36.432Z,17.01
2022-08-08T01:25:40.778Z,17.02
2022-08-08T01:26:36.370Z,17.00
2022-08-08T01:27:44.194Z,16.99
2022-08-08T01:28:38.373Z,17.00
2022-08-08T01:29:58.715Z,16.99
2022-08-08T01:30:36.362Z,16.99
2022-08-08T01:32:13.482Z,16.97
2022-08-08T01:32:36.391Z,16.96
2022-08-08T01:33:43.186Z,16.96
2022-08-08T01:34:37.188Z,16.94
2022-08-08T01:35:38.445Z,16.93
2022-08-08T01:36:36.246Z,16.93
2022-08-08T01:37:57.774Z,16.91
2022-08-08T01:38:37.232Z,16.90
2022-08-08T01:39:41.937Z,16.89
2022-08-08T01:40:37.154Z,16.88
2022-08-08T01:41:38.226Z,16.87
2022-08-08T01:42:37.550Z,16.86
2022-08-08T01:43:38.990Z,16.85
2022-08-08T01:44:35.446Z,16.85
2022-08-08T01:45:37.702Z,16.83
2022-08-08T01:46:35.157Z,16.83
2022-08-08T01:48:14.692Z,16.82
2022-08-08T01:48:36.289Z,16.80
2022-08-08T01:49:37.518Z,16.79
2022-08-08T01:50:37.876Z,16.79
2022-08-08T01:52:29.287Z,16.77
2022-08-08T01:54:03.194Z,16.76
2022-08-08T01:54:12.632Z,16.75
2022-08-08T01:55:45.064Z,16.74
2022-08-08T01:56:28.354Z,16.73
2022-08-08T01:56:37.291Z,16.72
2022-08-08T01:58:13.069Z,16.71
2022-08-08T01:58:39.835Z,16.71
2022-08-08T01:59:38.210Z,16.69
2022-08-08T02:00:36.036Z,16.68
2022-08-08T02:01:54.665Z,16.67
2022-08-08T02:02:41.694Z,16.66
2022-08-08T02:03:55.701Z,16.66
2022-08-08T02:04:37.892Z,16.65
2022-08-08T02:05:56.331Z,16.65
2022-08-08T02:06:36.831Z,16.64
2022-08-08T02:07:41.548Z,16.64
2022-08-08T02:08:34.925Z,16.63
2022-08-08T02:10:01.974Z,16.63
2022-08-08T02:10:44.563Z,16.62
2022-08-08T02:11:52.921Z,16.61
2022-08-08T02:12:35.909Z,16.61
2022-08-08T02:13:52.919Z,16.60
2022-08-08T02:14:55.859Z,16.60
2022-08-08T02:15:38.463Z,16.59
2022-08-08T02:16:34.816Z,16.58
2022-08-08T02:17:36.502Z,16.57
2022-08-08T02:18:35.831Z,16.56
2022-08-08T02:19:57.442Z,16.57
2022-08-08T02:21:02.473Z,16.55
2022-08-08T02:21:37.724Z,16.53
2022-08-08T02:22:52.431Z,16.53
2022-08-08T02:23:37.719Z,16.52
2022-08-08T02:24:34.757Z,16.51
2022-08-08T02:25:48.748Z,16.49
2022-08-08T02:26:36.398Z,16.48
2022-08-08T02:27:42.503Z,16.48
2022-08-08T02:28:35.763Z,16.47
2022-08-08T02:29:41.610Z,16.46
2022-08-08T02:30:35.810Z,16.45
2022-08-08T02:31:59.230Z,16.44
2022-08-08T02:32:35.891Z,16.43
2022-08-08T02:34:00.489Z,16.42
2022-08-08T02:34:37.051Z,16.40
2022-08-08T02:36:05.137Z,16.39
2022-08-08T02:36:35.633Z,16.38
2022-08-08T02:37:51.988Z,16.37
2022-08-08T02:38:36.511Z,16.35
2022-08-08T02:39:41.110Z,16.34
2022-08-08T02:40:35.611Z,16.33
2022-08-08T02:41:58.691Z,16.32
2022-08-08T02:42:38.246Z,16.31
2022-08-08T02:44:38.150Z,16.30
2022-08-08T02:44:56.515Z,16.29
2022-08-08T02:45:40.281Z,16.28
2022-08-08T02:46:35.494Z,16.27
2022-08-08T02:47:34.482Z,16.26
2022-08-08T02:48:34.503Z,16.24
2022-08-08T02:49:51.411Z,16.24
2022-08-08T02:50:35.451Z,16.23
2022-08-08T02:51:46.568Z,16.21
2022-08-08T02:52:51.351Z,16.20
2022-08-08T02:53:35.493Z,16.19
2022-08-08T02:54:34.648Z,16.19
2022-08-08T02:55:37.349Z,16.18
2022-08-08T02:56:34.453Z,16.17
2022-08-08T02:57:40.600Z,16.17
2022-08-08T02:58:36.965Z,16.15
2022-08-08T02:59:57.956Z,16.14
2022-08-08T03:00:35.542Z,16.14
2022-08-08T03:01:47.493Z,16.12
2022-08-08T03:02:36.914Z,16.12
2022-08-08T03:05:00.773Z,16.11
2022-08-08T03:05:04.226Z,16.10
2022-08-08T03:05:45.334Z,16.09
2022-08-08T03:06:35.723Z,16.09
2022-08-08T03:07:41.591Z,16.08
2022-08-08T03:08:35.273Z,16.08
2022-08-08T03:09:34.238Z,16.08
2022-08-08T03:10:36.918Z,16.07
2022-08-08T03:11:59.849Z,16.07
2022-08-08T03:12:35.965Z,16.05
2022-08-08T03:15:56.988Z,16.04
2022-08-08T03:15:57.186Z,16.04
2022-08-08T03:15:58.342Z,16.05
2022-08-08T03:16:37.423Z,16.04
2022-08-08T03:17:39.589Z,16.02
2022-08-08T03:18:35.849Z,16.02
2022-08-08T03:19:34.820Z,16.01
2022-08-08T03:20:34.121Z,15.99
2022-08-08T03:21:40.773Z,15.99
2022-08-08T03:22:37.761Z,15.98
2022-08-08T03:23:56.528Z,15.98
2022-08-08T03:24:35.074Z,15.98
2022-08-08T03:25:36.381Z,15.97
2022-08-08T03:26:42.201Z,15.96
2022-08-08T03:27:35.934Z,15.95
2022-08-08T03:28:36.956Z,15.94
2022-08-08T03:29:54.457Z,15.93
2022-08-08T03:30:35.387Z,15.92
2022-08-08T03:31:38.070Z,15.91
2022-08-08T03:32:35.682Z,15.90
2022-08-08T03:33:58.708Z,15.89
2022-08-08T03:34:35.647Z,15.87
2022-08-08T03:35:34.770Z,15.87
2022-08-08T03:36:34.645Z,15.85
2022-08-08T03:38:54.009Z,15.85
2022-08-08T03:38:57.829Z,15.84
2022-08-08T03:39:51.597Z,15.83
2022-08-08T03:40:37.068Z,15.81
2022-08-08T03:42:12.420Z,15.81
2022-08-08T03:42:37.374Z,15.79
2022-08-08T03:43:38.401Z,15.78
2022-08-08T03:44:35.525Z,15.77
2022-08-08T03:46:07.099Z,15.77
2022-08-08T03:46:35.028Z,15.75
2022-08-08T03:47:45.286Z,15.75
2022-08-08T03:49:09.614Z,15.74
2022-08-08T03:50:00.437Z,15.73
2022-08-08T03:50:35.303Z,15.73
2022-08-08T03:51:51.063Z,15.73
2022-08-08T03:52:35.782Z,15.72
2022-08-08T03:53:42.740Z,15.72
2022-08-08T03:54:51.910Z,15.72
2022-08-08T03:55:57.940Z,15.72
2022-08-08T03:56:36.209Z,15.72
2022-08-08T03:58:35.298Z,15.71
2022-08-08T03:58:38.100Z,15.72
2022-08-08T03:59:33.770Z,15.71
2022-08-08T04:00:34.753Z,15.71
2022-08-08T04:03:58.256Z,15.68
2022-08-08T04:04:48.262Z,15.72
2022-08-08T04:05:49.953Z,15.73
2022-08-08T04:06:46.369Z,15.73
2022-08-08T04:07:46.963Z,15.74
2022-08-08T04:08:46.951Z,15.75
2022-08-08T04:10:02.981Z,15.77
2022-08-08T04:10:47.381Z,15.78
2022-08-08T04:11:57.644Z,15.80
2022-08-08T04:12:47.900Z,15.83
2022-08-08T04:14:03.207Z,15.83
2022-08-08T04:14:50.517Z,15.84
2022-08-08T04:15:54.733Z,15.87
2022-08-08T04:16:49.494Z,15.89
2022-08-08T04:17:58.828Z,15.91
2022-08-08T04:18:48.765Z,15.93
2022-08-08T04:19:46.134Z,15.96
2022-08-08T04:20:46.820Z,15.98
2022-08-08T04:21:46.800Z,16.02
2022-08-08T04:22:46.122Z,16.05
2022-08-08T04:24:05.830Z,16.08
2022-08-08T04:24:50.045Z,16.11
2022-08-08T04:25:46.772Z,16.14
2022-08-08T04:26:57.478Z,16.18
2022-08-08T04:28:34.166Z,16.23
2022-08-08T04:28:48.518Z,16.27
2022-08-08T04:29:55.367Z,16.31
2022-08-08T04:30:47.004Z,16.37
2022-08-08T04:31:58.313Z,16.42
2022-08-08T04:32:48.096Z,16.46
2022-08-08T04:33:45.984Z,16.52
2022-08-08T04:34:55.658Z,16.57
2022-08-08T04:35:51.017Z,16.63
2022-08-08T04:36:46.645Z,16.68
2022-08-08T04:37:46.637Z,16.73
2022-08-08T04:38:46.025Z,16.79
2022-08-08T04:40:04.319Z,16.86
2022-08-08T04:40:53.408Z,16.90
2022-08-08T04:41:48.805Z,16.95
2022-08-08T04:42:57.309Z,17.01
2022-08-08T04:43:54.292Z,17.07
2022-08-08T04:44:48.010Z,17.11
2022-08-08T04:45:45.858Z,17.17
2022-08-08T04:46:46.536Z,17.22
2022-08-08T04:47:47.205Z,17.29
2022-08-08T04:48:46.507Z,17.34
2022-08-08T04:50:00.734Z,17.41
2022-08-08T04:50:47.489Z,17.46
2022-08-08T04:51:55.151Z,17.52
2022-08-08T04:52:48.600Z,17.57
2022-08-08T04:54:30.250Z,17.61
2022-08-08T04:54:50.466Z,17.66
2022-08-08T04:55:55.362Z,17.70
2022-08-08T04:56:46.734Z,17.75
2022-08-08T04:57:46.421Z,17.79
2022-08-08T04:58:48.342Z,17.83
2022-08-08T04:59:45.701Z,17.88
2022-08-08T05:00:47.705Z,17.93
2022-08-08T05:01:48.373Z,17.96
2022-08-08T05:02:46.422Z,18.00
2022-08-08T05:04:08.958Z,18.04
2022-08-08T05:04:47.335Z,18.08
2022-08-08T05:05:45.783Z,18.11
2022-08-08T05:06:45.650Z,18.16
2022-08-08T05:07:45.641Z,18.22
2022-08-08T05:08:46.309Z,18.26
2022-08-08T05:09:48.007Z,18.31
2022-08-08T05:10:46.273Z,18.35
2022-08-08T05:11:47.724Z,18.39
2022-08-08T05:13:00.346Z,18.43
2022-08-08T05:13:57.686Z,18.48
2022-08-08T05:14:46.537Z,18.52
2022-08-08T05:16:53.189Z,18.57
2022-08-08T05:16:54.431Z,18.61
2022-08-08T05:17:54.528Z,18.65
2022-08-08T05:18:46.496Z,18.68
2022-08-08T05:20:12.278Z,18.73
2022-08-08T05:20:49.952Z,18.79
2022-08-08T05:21:59.546Z,18.84
2022-08-08T05:22:49.041Z,18.88
2022-08-08T05:23:46.065Z,18.94
2022-08-08T05:24:48.142Z,18.99
2022-08-08T05:25:46.881Z,19.04
2022-08-08T05:26:46.108Z,19.09
2022-08-08T05:27:46.089Z,19.14
2022-08-08T05:28:56.168Z,19.18
2022-08-08T05:29:50.380Z,19.23
2022-08-08T05:30:47.602Z,19.28
2022-08-08T05:32:03.310Z,19.34
2022-08-08T05:32:46.350Z,19.40
2022-08-08T05:33:49.459Z,19.47
2022-08-08T05:34:46.011Z,19.53
2022-08-08T05:35:46.003Z,19.60
2022-08-08T05:36:47.012Z,19.69
2022-08-08T05:37:53.665Z,19.78
2022-08-08T05:38:48.223Z,19.87
2022-08-08T05:39:46.032Z,19.99
2022-08-08T05:40:45.274Z,20.09
2022-08-08T05:41:54.970Z,20.19
2022-08-08T05:42:49.164Z,20.34
2022-08-08T05:44:04.205Z,20.53
2022-08-08T05:44:46.225Z,20.70
2022-08-08T05:45:54.933Z,20.90
2022-08-08T05:46:47.545Z,21.11
2022-08-08T05:47:59.918Z,21.21
2022-08-08T05:48:49.891Z,21.48
2022-08-08T05:49:54.098Z,21.92
2022-08-08T05:50:46.846Z,22.52
2022-08-08T05:51:49.216Z,23.19
2022-08-08T05:52:45.816Z,23.80
2022-08-08T05:54:25.797Z,24.59
2022-08-08T05:54:51.088Z,25.35
2022-08-08T05:56:09.510Z,25.99
2022-08-08T05:56:47.599Z,26.55
2022-08-08T05:58:05.125Z,27.05
2022-08-08T05:58:53.823Z,27.49
2022-08-08T06:00:01.148Z,27.88
2022-08-08T06:00:46.139Z,28.16
2022-08-08T06:01:52.604Z,28.45
2022-08-08T06:02:48.728Z,28.86
2022-08-08T06:03:45.099Z,29.26
2022-08-08T06:04:47.733Z,29.64
2022-08-08T06:05:46.680Z,29.96
2022-08-08T06:06:49.259Z,30.22
2022-08-08T06:07:46.117Z,30.48
2022-08-08T06:08:54.805Z,30.68
2022-08-08T06:09:59.474Z,30.88
2022-08-08T06:10:45.922Z,31.11
2022-08-08T06:11:46.140Z,31.36
2022-08-08T06:12:45.603Z,31.61
2022-08-08T06:13:47.256Z,31.86
2022-08-08T06:14:47.935Z,32.07
2022-08-08T06:15:51.133Z,32.26
2022-08-08T06:16:45.862Z,32.47
2022-08-08T06:17:51.391Z,32.67
2022-08-08T06:18:47.793Z,32.86
2022-08-08T06:19:45.525Z,33.05
2022-08-08T06:20:44.896Z,33.21
2022-08-08T06:21:48.825Z,33.38
2022-08-08T06:22:45.820Z,33.58
2022-08-08T06:24:01.823Z,33.78
2022-08-08T06:24:51.204Z,33.95
2022-08-08T06:26:35.127Z,34.10
2022-08-08T06:26:50.541Z,34.31
2022-08-08T06:27:48.080Z,34.48
2022-08-08T06:28:44.750Z,34.64
2022-08-08T06:29:59.593Z,34.79
2022-08-08T06:30:45.726Z,34.47
2022-08-08T06:32:09.523Z,34.75
2022-08-08T06:32:47.801Z,34.93
2022-08-08T06:34:25.529Z,35.09
2022-08-08T06:34:56.138Z,35.25
2022-08-08T06:36:06.336Z,35.37
2022-08-08T06:36:53.970Z,35.41
2022-08-08T06:37:45.651Z,35.42
2022-08-08T06:38:45.638Z,35.47
2022-08-08T06:39:56.241Z,35.52
2022-08-08T06:40:48.714Z,35.65
2022-08-08T06:41:45.602Z,35.77
2022-08-08T06:42:44.656Z,35.89
2022-08-08T06:43:56.927Z,36.04
2022-08-08T06:44:46.267Z,36.23
2022-08-08T06:45:45.264Z,36.41
2022-08-08T06:46:44.573Z,36.57
2022-08-08T06:47:52.716Z,36.64
2022-08-08T06:48:47.040Z,36.67
2022-08-08T06:49:55.042Z,36.75
2022-08-08T06:50:46.197Z,36.85
2022-08-08T06:51:48.894Z,36.99
2022-08-08T06:52:47.870Z,37.05
2022-08-08T06:53:50.979Z,37.04
2022-08-08T06:54:48.880Z,36.97
2022-08-08T06:55:47.353Z,36.93
2022-08-08T06:56:51.448Z,36.91
2022-08-08T06:57:54.673Z,36.86
2022-08-08T06:58:45.463Z,36.82
2022-08-08T07:00:12.344Z,36.76
2022-08-08T07:00:48.859Z,36.80
2022-08-08T07:02:17.446Z,36.89
2022-08-08T07:02:46.259Z,36.98
2022-08-08T07:04:38.921Z,37.06
2022-08-08T07:04:49.748Z,37.12
2022-08-08T07:06:02.267Z,37.20
2022-08-08T07:06:45.369Z,37.33
2022-08-08T07:07:45.014Z,37.47
2022-08-08T07:08:44.346Z,37.64
2022-08-08T07:09:59.739Z,37.84
2022-08-08T07:10:47.824Z,38.07
2022-08-08T07:11:50.713Z,38.30
2022-08-08T07:12:47.592Z,38.55
2022-08-08T07:14:00.645Z,38.81
2022-08-08T07:14:46.165Z,39.07
2022-08-08T07:16:04.863Z,39.34
2022-08-08T07:16:51.262Z,39.63
2022-08-08T07:18:00.815Z,39.84
2022-08-08T07:18:46.080Z,39.89
2022-08-08T07:19:44.890Z,39.90
2022-08-08T07:20:50.540Z,39.91
2022-08-08T07:21:45.873Z,39.93
2022-08-08T07:22:45.150Z,40.04
2022-08-08T07:24:01.263Z,40.09
2022-08-08T07:24:45.199Z,40.06
2022-08-08T07:25:54.858Z,40.03
2022-08-08T07:26:46.856Z,40.02
2022-08-08T07:28:00.637Z,40.02
2022-08-08T07:28:45.122Z,40.12
2022-08-08T07:29:59.695Z,40.17
2022-08-08T07:30:45.112Z,40.22
2022-08-08T07:31:44.763Z,40.26
2022-08-08T07:32:44.076Z,40.33
2022-08-08T07:33:53.343Z,40.43
2022-08-08T07:34:59.319Z,40.58
2022-08-08T07:35:46.989Z,40.71
2022-08-08T07:36:50.168Z,40.84
2022-08-08T07:38:04.448Z,41.00
2022-08-08T07:38:47.389Z,40.97
2022-08-08T07:39:57.610Z,40.92
2022-08-08T07:40:45.053Z,41.03
2022-08-08T07:42:03.572Z,41.10
2022-08-08T07:42:46.938Z,41.16
2022-08-08T07:43:51.299Z,41.21
2022-08-08T07:44:45.862Z,41.28
2022-08-08T07:46:05.218Z,41.44
2022-08-08T07:46:45.852Z,41.52
2022-08-08T07:47:49.043Z,41.57
2022-08-08T07:48:44.964Z,41.63
2022-08-08T07:49:46.173Z,41.70
2022-08-08T07:50:44.561Z,41.74
2022-08-08T07:51:53.321Z,41.75
2022-08-08T07:52:44.918Z,41.76
2022-08-08T07:54:00.870Z,41.77
2022-08-08T07:54:45.022Z,41.77
2022-08-08T07:55:44.512Z,41.75
2022-08-08T07:56:44.502Z,41.77
2022-08-08T07:57:48.683Z,41.82
2022-08-08T07:58:45.703Z,41.91
2022-08-08T07:59:44.464Z,42.04
2022-08-08T08:00:44.521Z,42.13
2022-08-08T08:02:33.020Z,42.21
2022-08-08T08:02:44.820Z,42.25
2022-08-08T08:03:44.425Z,42.24
2022-08-08T08:04:44.418Z,42.23
2022-08-08T08:05:43.763Z,42.25
2022-08-08T08:06:44.705Z,42.24
2022-08-08T08:07:46.066Z,42.21
2022-08-08T08:08:52.128Z,42.22
2022-08-08T08:09:46.099Z,42.20
2022-08-08T08:10:44.356Z,42.19
2022-08-08T08:11:52.488Z,42.19
2022-08-08T08:12:46.579Z,42.19
2022-08-08T08:14:07.538Z,42.20
2022-08-08T08:14:46.048Z,42.20
2022-08-08T08:15:44.304Z,42.12
2022-08-08T08:16:50.625Z,42.00
2022-08-08T08:17:48.785Z,41.88
2022-08-08T08:18:55.667Z,41.78
2022-08-08T08:19:46.218Z,41.66
2022-08-08T08:20:44.580Z,41.53
2022-08-08T08:21:57.145Z,41.37
2022-08-08T08:22:44.560Z,41.25
2022-08-08T08:23:44.623Z,41.23
2022-08-08T08:24:46.270Z,41.27
2022-08-08T08:25:52.031Z,41.24
2022-08-08T08:26:52.533Z,41.17
2022-08-08T08:27:46.857Z,41.06
2022-08-08T08:28:44.157Z,40.89
2022-08-08T08:29:44.144Z,40.67
2022-08-08T08:30:45.182Z,40.45
2022-08-08T08:31:43.447Z,40.23
2022-08-08T08:32:51.571Z,40.08
2022-08-08T08:33:49.050Z,40.04
2022-08-08T08:34:49.288Z,40.09
2022-08-08T08:36:17.869Z,40.25
2022-08-08T08:36:44.382Z,40.44
2022-08-08T08:38:13.056Z,40.53
2022-08-08T08:38:49.693Z,40.52
2022-08-08T08:40:01.667Z,40.58
2022-08-08T08:40:51.187Z,40.64
2022-08-08T08:41:44.378Z,40.63
2022-08-08T08:42:44.010Z,40.51
2022-08-08T08:43:45.049Z,40.33
2022-08-08T08:44:43.991Z,40.18
2022-08-08T08:45:43.300Z,40.05
2022-08-08T08:46:47.351Z,39.97
2022-08-08T08:47:46.210Z,39.96
2022-08-08T08:48:49.046Z,39.88
2022-08-08T08:49:46.171Z,39.65
2022-08-08T08:50:43.242Z,39.34
2022-08-08T08:51:51.660Z,39.13
2022-08-08T08:52:59.510Z,38.91
2022-08-08T08:53:54.310Z,38.66
2022-08-08T08:54:44.225Z,38.42
2022-08-08T08:55:43.885Z,38.30
2022-08-08T08:56:43.207Z,38.31
2022-08-08T08:57:43.874Z,38.29
2022-08-08T08:58:46.987Z,38.30
2022-08-08T08:59:59.403Z,38.31
2022-08-08T09:01:08.289Z,38.16
2022-08-08T09:01:46.105Z,38.00
2022-08-08T09:02:43.130Z,37.85
2022-08-08T09:03:47.063Z,37.79
2022-08-08T09:04:49.706Z,37.72
2022-08-08T09:05:54.246Z,37.62
2022-08-08T09:06:50.158Z,37.49
2022-08-08T09:08:12.257Z,37.40
2022-08-08T09:08:44.102Z,37.40
2022-08-08T09:09:47.753Z,37.37
2022-08-08T09:10:43.052Z,37.32
2022-08-08T09:11:47.281Z,37.19
2022-08-08T09:12:46.366Z,36.98
2022-08-08T09:13:43.698Z,36.75
2022-08-08T09:14:47.222Z,36.58
2022-08-08T09:15:43.280Z,36.41
2022-08-08T09:16:43.047Z,36.28
2022-08-08T09:17:52.350Z,36.25
2022-08-08T09:18:43.951Z,36.21
2022-08-08T09:21:56.668Z,36.11
2022-08-08T09:21:58.841Z,36.15
2022-08-08T09:21:58.841Z,36.09
2022-08-08T09:22:44.607Z,36.13
2022-08-08T09:23:42.911Z,36.09
2022-08-08T09:24:43.576Z,36.07
2022-08-08T09:25:54.723Z,36.08
2022-08-08T09:26:49.785Z,36.16
2022-08-08T09:27:57.099Z,36.27
2022-08-08T09:28:44.951Z,36.41
2022-08-08T09:29:52.475Z,36.59
2022-08-08T09:30:45.763Z,36.77
2022-08-08T09:31:56.437Z,36.93
2022-08-08T09:32:50.512Z,37.02
2022-08-08T09:34:15.836Z,37.08
2022-08-08T09:34:50.382Z,37.14
2022-08-08T09:35:50.289Z,37.02
2022-08-08T09:36:51.484Z,36.71
2022-08-08T09:38:01.297Z,36.01
2022-08-08T09:38:53.462Z,35.56
2022-08-08T09:39:43.799Z,35.45
2022-08-08T09:40:46.567Z,35.36
2022-08-08T09:41:54.731Z,35.31
2022-08-08T09:42:51.092Z,35.33
2022-08-08T09:44:05.097Z,35.44
2022-08-08T09:44:43.728Z,35.57
2022-08-08T09:46:01.791Z,35.74
2022-08-08T09:46:45.470Z,35.99
2022-08-08T09:48:04.241Z,36.25
2022-08-08T09:48:46.380Z,36.43
2022-08-08T09:49:49.955Z,36.64
2022-08-08T09:50:43.909Z,36.88
2022-08-08T09:52:07.399Z,37.08
2022-08-08T09:52:56.700Z,37.21
2022-08-08T09:54:00.026Z,37.34
2022-08-08T09:54:44.002Z,37.44
2022-08-08T09:56:05.351Z,37.59
2022-08-08T09:56:44.632Z,37.77
2022-08-08T09:57:46.333Z,37.94
2022-08-08T09:58:44.995Z,38.04
2022-08-08T10:00:01.682Z,38.02
2022-08-08T10:00:53.541Z,37.91
2022-08-08T10:01:59.072Z,37.81
2022-08-08T10:02:44.949Z,37.80
2022-08-08T10:03:44.413Z,37.86
2022-08-08T10:04:47.722Z,37.87
2022-08-08T10:05:46.785Z,37.88
2022-08-08T10:06:44.922Z,37.95
2022-08-08T10:07:44.966Z,38.03
2022-08-08T10:08:42.440Z,38.06
2022-08-08T10:10:00.175Z,38.05
2022-08-08T10:10:50.019Z,38.01
2022-08-08T10:12:26.279Z,38.00
2022-08-08T10:12:54.307Z,38.04
2022-08-08T10:13:44.786Z,38.17
2022-08-08T10:14:44.796Z,38.30
2022-08-08T10:16:00.240Z,38.52
2022-08-08T10:16:44.279Z,38.91
2022-08-08T10:18:05.513Z,39.36
2022-08-08T10:18:44.107Z,39.73
2022-08-08T10:19:57.212Z,39.98
2022-08-08T10:20:51.166Z,40.24
2022-08-08T10:21:50.232Z,40.47
2022-08-08T10:22:55.121Z,40.73
2022-08-08T10:23:46.907Z,41.04
2022-08-08T10:24:43.262Z,41.36
2022-08-08T10:25:56.283Z,41.73
2022-08-08T10:26:57.373Z,42.15
2022-08-08T10:27:44.674Z,42.61
2022-08-08T10:28:42.920Z,43.06
2022-08-08T10:29:57.182Z,43.33
2022-08-08T10:30:59.988Z,43.54
2022-08-08T10:31:47.446Z,43.76
2022-08-08T10:32:48.785Z,43.85
2022-08-08T10:34:19.616Z,43.98
2022-08-08T10:34:43.846Z,44.20
2022-08-08T10:36:19.902Z,44.41
2022-08-08T10:36:43.827Z,44.47
2022-08-08T10:37:42.136Z,44.52
2022-08-08T10:38:42.824Z,44.50
2022-08-08T10:39:43.484Z,44.36
2022-08-08T10:40:45.019Z,44.20
2022-08-08T10:42:07.646Z,44.03
2022-08-08T10:42:45.264Z,43.94
2022-08-08T10:43:43.128Z,43.75
2022-08-08T10:44:42.991Z,43.59
2022-08-08T10:45:42.227Z,43.45
2022-08-08T10:46:43.950Z,43.30
2022-08-08T10:47:48.267Z,42.97
2022-08-08T10:48:57.171Z,42.29
2022-08-08T10:50:02.071Z,41.16
2022-08-08T10:50:45.471Z,39.85
2022-08-08T10:51:51.079Z,38.45
2022-08-08T10:52:44.895Z,37.10
2022-08-08T10:53:57.444Z,35.98
2022-08-08T10:54:42.948Z,35.09
2022-08-08T10:55:46.694Z,34.37
2022-08-08T10:56:43.019Z,33.80
2022-08-08T10:57:49.949Z,33.36
2022-08-08T10:58:54.598Z,32.91
2022-08-08T10:59:44.825Z,32.55
2022-08-08T11:00:48.601Z,32.30
2022-08-08T11:01:42.934Z,32.07
2022-08-08T11:02:42.561Z,31.83
2022-08-08T11:04:00.792Z,31.56
2022-08-08T11:04:43.215Z,31.31
2022-08-08T11:05:42.817Z,31.10
2022-08-08T11:06:47.482Z,30.98
2022-08-08T11:08:31.117Z,30.81
2022-08-08T11:08:53.105Z,30.60
2022-08-08T11:09:43.723Z,30.37
2022-08-08T11:10:42.478Z,30.10
2022-08-08T11:12:05.730Z,29.81
2022-08-08T11:12:46.866Z,29.57
2022-08-08T11:13:52.015Z,29.41
2022-08-08T11:14:43.669Z,29.24
2022-08-08T11:15:45.100Z,29.06
2022-08-08T11:16:46.580Z,28.87
2022-08-08T11:18:00.051Z,28.69
2022-08-08T11:18:42.731Z,28.49
2022-08-08T11:19:41.687Z,28.30
2022-08-08T11:20:42.681Z,28.11
2022-08-08T11:21:44.606Z,27.96
2022-08-08T11:22:43.983Z,27.83
2022-08-08T11:23:41.670Z,27.79
2022-08-08T11:24:41.702Z,27.82
2022-08-08T11:25:53.256Z,27.88
2022-08-08T11:26:56.877Z,27.95
2022-08-08T11:27:44.620Z,28.02
2022-08-08T11:28:42.273Z,28.13
2022-08-08T11:30:04.458Z,28.24
2022-08-08T11:30:50.525Z,28.35
2022-08-08T11:31:48.221Z,28.46
2022-08-08T11:32:47.271Z,28.51
2022-08-08T11:33:53.174Z,28.54
2022-08-08T11:35:12.829Z,28.58
2022-08-08T11:35:43.595Z,28.66
2022-08-08T11:36:42.023Z,28.78
2022-08-08T11:38:39.037Z,28.89
2022-08-08T11:38:53.664Z,28.94
2022-08-08T11:39:43.226Z,28.98
2022-08-08T11:40:42.459Z,29.01
2022-08-08T11:41:42.268Z,29.03
2022-08-08T11:42:41.450Z,29.06
2022-08-08T11:43:43.366Z,29.12
2022-08-08T11:44:42.101Z,29.16
2022-08-08T11:46:06.937Z,29.24
2022-08-08T11:46:44.324Z,29.26
2022-08-08T11:48:02.695Z,29.27
2022-08-08T11:48:42.374Z,29.29
2022-08-08T11:49:43.302Z,29.31
2022-08-08T11:50:43.277Z,29.30
2022-08-08T11:51:50.379Z,29.30
2022-08-08T11:52:47.202Z,29.31
2022-08-08T11:53:59.071Z,29.28
2022-08-08T11:54:46.461Z,29.22
2022-08-08T11:55:41.984Z,29.15
2022-08-08T11:56:42.988Z,29.11
2022-08-08T11:57:41.317Z,29.07
2022-08-08T11:58:41.307Z,29.07
2022-08-08T12:00:00.525Z,29.04
2022-08-08T12:00:43.157Z,29.04
2022-08-08T12:01:41.226Z,29.09
2022-08-08T12:02:41.821Z,29.18
2022-08-08T12:03:41.305Z,29.28
2022-08-08T12:04:41.889Z,29.39
2022-08-08T12:05:41.880Z,29.49
2022-08-08T12:06:42.953Z,29.60
2022-08-08T12:07:41.860Z,29.71
2022-08-08T12:08:41.863Z,29.81
2022-08-08T12:09:59.614Z,29.88
2022-08-08T12:10:42.821Z,29.97
2022-08-08T12:11:42.815Z,30.08
2022-08-08T12:12:41.820Z,30.21
2022-08-08T12:14:03.807Z,30.38
2022-08-08T12:14:43.052Z,30.51
2022-08-08T12:15:47.336Z,30.53
2022-08-08T12:16:47.208Z,30.58
2022-08-08T12:17:51.190Z,30.66
2022-08-08T12:18:43.543Z,30.74
2022-08-08T12:19:51.045Z,30.76
2022-08-08T12:20:43.511Z,30.74
2022-08-08T12:22:00.452Z,30.71
2022-08-08T12:22:45.799Z,30.69
2022-08-08T12:23:51.674Z,30.68
2022-08-08T12:24:51.283Z,30.63
2022-08-08T12:25:44.941Z,30.61
2022-08-08T12:26:42.660Z,30.56
2022-08-08T12:27:43.515Z,30.49
2022-08-08T12:28:40.955Z,30.44
2022-08-08T12:29:44.901Z,30.46
2022-08-08T12:30:41.617Z,30.54
2022-08-08T12:31:53.471Z,30.62
2022-08-08T12:32:43.551Z,30.72
2022-08-08T12:34:01.852Z,30.81
2022-08-08T12:34:41.897Z,30.92
2022-08-08T12:35:41.565Z,30.99
2022-08-08T12:36:46.596Z,31.02
2022-08-08T12:37:43.438Z,30.99
2022-08-08T12:38:42.521Z,30.90
2022-08-08T12:40:00.702Z,30.80
2022-08-08T12:40:54.812Z,30.68
2022-08-08T12:41:56.735Z,30.57
2022-08-08T12:42:46.505Z,30.50
2022-08-08T12:43:43.824Z,30.42
2022-08-08T12:44:41.810Z,30.29
2022-08-08T12:45:59.517Z,30.19
2022-08-08T12:46:41.743Z,30.08
2022-08-08T12:48:04.862Z,30.01
2022-08-08T12:48:44.969Z,30.00
2022-08-08T12:49:45.119Z,30.02
2022-08-08T12:50:46.948Z,30.05
2022-08-08T12:51:42.136Z,30.07
2022-08-08T12:52:43.659Z,30.06
2022-08-08T12:53:42.300Z,30.03